25 czerwca 2022

Czas Kod Pogoda Temp. Widoczność Sufit Wiatr METAR/SPECI
2:25 am
V
63 °F 6¼ mi+ - 150° 150° 4 kt METAR EHDL 250025Z AUTO 15004KT 110V200 9999 NCD 17/15 Q1008 BLU RMK CB INFO NOT AVBL
1:55 am
V
63 °F 6¼ mi+ - 140° 140° 4 kt METAR EHDL 242355Z AUTO 14004KT 070V180 9999 FEW310 17/15 Q1008 BLU
1:25 am
V
63 °F 6¼ mi+ - 160° 160° 3 kt METAR EHDL 242325Z AUTO 16003KT 9999 NCD 17/15 Q1008 BLU
12:55 am
V
63 °F 6¼ mi+ 33.000 ft 160° 160° 3 kt METAR EHDL 242255Z AUTO 16003KT 110V180 9999 BKN330 17/15 Q1008 BLU
12:25 am
V
63 °F 6¼ mi+ - 130° 130° 1 kt METAR EHDL 242225Z AUTO 13001KT 9999 FEW320 17/15 Q1008 BLU

24 czerwca 2022

Czas Kod Pogoda Temp. Widoczność Sufit Wiatr METAR/SPECI
11:55 pm
V
63 °F 6¼ mi+ - 170° 170° 5 kt METAR EHDL 242155Z AUTO 17005KT 100V180 9999 SCT210 17/15 Q1008 BLU
11:25 pm
V
63 °F 6¼ mi+ 21.000 ft 130° 130° 2 kt METAR EHDL 242125Z AUTO 13002KT 9999 OVC210 17/15 Q1008 BLU
10:55 pm
V
63 °F 6¼ mi+ - Var 000° 0 kt METAR EHDL 242055Z AUTO 00000KT 9999 NCD 17/15 Q1008 BLU
10:25 pm
V
64 °F 6¼ mi+ - 130° 130° 5 kt METAR EHDL 242025Z AUTO 13005KT 080V160 9999 NCD 18/16 Q1008 BLU
9:55 pm
V
66 °F 6¼ mi+ 22.000 ft 120° 120° 1 kt METAR EHDL 241955Z AUTO 12001KT 9999 FEW097 SCT150 OVC220 19/17 Q1007 BLU
9:25 pm
V
68 °F 6¼ mi+ 18.000 ft Var Var 1 kt METAR EHDL 241925Z AUTO VRB01KT 9999 FEW100 OVC180 20/16 Q1007 BLU
8:55 pm
V
70 °F 6¼ mi+ 9.500 ft Var 000° 0 kt METAR EHDL 241855Z AUTO 00000KT 9999 BKN095 OVC240 21/15 Q1007 BLU
8:25 pm
V
68 °F 6¼ mi+ - 250° 250° 3 kt METAR EHDL 241825Z AUTO 25003KT 220V290 9999 SCT270 20/15 Q1007 BLU
7:55 pm
V
70 °F 6¼ mi+ 17.000 ft 250° 250° 6 kt METAR EHDL 241755Z AUTO 25006KT 200V300 9999 BKN170 OVC290 21/15 Q1006 BLU
7:25 pm
V
72 °F 6¼ mi+ 32.000 ft 230° 230° 7 kt METAR EHDL 241725Z AUTO 23007KT 170V300 9999 SCT260 BKN320 22/16 Q1006 BLU
6:55 pm
V
72 °F 6¼ mi+ 32.000 ft 210° 210° 8 kt METAR EHDL 241655Z AUTO 21008KT 130V280 9999 FEW043 OVC320 22/15 Q1006 BLU
6:25 pm
V
73 °F 6¼ mi+ 32.000 ft 200° 200° 10 kt METAR EHDL 241625Z AUTO 20010KT 140V270 9999 FEW037 BKN320 23/15 Q1006 BLU
5:55 pm
V
73 °F 6¼ mi+ 3.600 ft 210° 210° 7 kt METAR EHDL 241555Z AUTO 21007KT 160V280 9999 SCT031 BKN036 BKN260 23/16 Q1006 BLU
5:25 pm
V
75 °F 6¼ mi+ - 200° 200° 9 kt METAR EHDL 241525Z AUTO 20009KT 120V270 9999 FEW280 24/15 Q1006 BLU
4:55 pm
V
73 °F 6¼ mi+ - 210° 210° 9 kt METAR EHDL 241455Z AUTO 21009KT 140V270 9999 FEW029 23/16 Q1006 BLU
4:25 pm
V
73 °F 6¼ mi+ - 220° 220° 8 kt METAR EHDL 241425Z AUTO 22008KT 140V270 9999 NCD 23/16 Q1006 BLU
3:55 pm
V
73 °F 6¼ mi+ - 210° 210° 8 kt METAR EHDL 241355Z AUTO 21008KT 140V310 9999 NCD 23/17 Q1006 BLU
3:25 pm
V
72 °F 6¼ mi+ 11.000 ft 220° 220° 4 kt METAR EHDL 241325Z AUTO 22004KT 150V300 9999 FEW013 OVC110 22/18 Q1006 BLU
2:55 pm
V
68 °F 6¼ mi+ 10.000 ft 230° 230° 5 kt METAR EHDL 241255Z AUTO 23005KT 150V280 9999 FEW015CB SCT096 OVC100 20/18 Q1006 RERA BLU
2:25 pm
V
70 °F 6¼ mi+ 9.200 ft 220° 220° 11 kt METAR EHDL 241225Z AUTO 22011KT 170V290 9999 -RA FEW016CB SCT024 BKN092 21/16 Q1006 WHT
1:55 pm
M
72 °F 6¼ mi+ 2.600 ft 230° 230° 8 kt METAR EHDL 241155Z AUTO 23008KT 140V310 9999 FEW019 SCT023 BKN026 22/16 Q1006 WHT
1:25 pm
V
72 °F 6¼ mi+ 12.000 ft 220° 220° 7 kt METAR EHDL 241125Z AUTO 22007KT 160V290 9999 FEW017 SCT022 OVC120 22/17 Q1006 WHT
12:55 pm
M
68 °F 6¼ mi+ 1.400 ft 220° 220° 7 kt METAR EHDL 241055Z AUTO 22007KT 140V280 9999 FEW009 SCT011 BKN014 20/18 Q1006 GRN
12:25 pm
M
68 °F 6¼ mi+ 1.400 ft 220° 220° 8 kt METAR EHDL 241025Z AUTO 22008KT 160V300 9999 FEW007 SCT009 BKN014 20/18 Q1006 GRN
11:55 am
M
66 °F 6¼ mi+ 1.100 ft 220° 220° 6 kt METAR EHDL 240955Z AUTO 22006KT 170V270 9999 FEW007 SCT009 BKN011 19/18 Q1006 GRN
11:25 am
I
66 °F 6¼ mi+ 700 ft 220° 220° 7 kt METAR EHDL 240925Z AUTO 22007KT 180V290 9999 FEW005 BKN007 BKN009 19/18 Q1006 GRN
10:55 am
I
64 °F 6¼ mi+ 500 ft 220° 220° 5 kt METAR EHDL 240855Z AUTO 22005KT 170V260 9999 FEW004 BKN005 BKN007 18/17 Q1006 YLO
10:25 am
V
64 °F 6¼ mi+ 7.900 ft 230° 230° 6 kt METAR EHDL 240825Z AUTO 23006KT 150V290 9999 FEW003 SCT004 BKN079 18/17 Q1006 REDZ YLO
9:55 am
V
63 °F 6¼ mi+ 6.000 ft 210° 210° 5 kt METAR EHDL 240755Z AUTO 21005KT 130V280 9999 DZ FEW003 SCT007 BKN060 17/17 Q1007 GRN
9:25 am
V
63 °F 6¼ mi+ 7.200 ft 200° 200° 5 kt METAR EHDL 240725Z AUTO 20005KT 130V250 9999 DZRA FEW003 BKN072 OVC079 17/17 Q1007 BLU
8:55 am
V
63 °F 6¼ mi+ 7.100 ft 170° 170° 3 kt METAR EHDL 240655Z AUTO 17003KT 110V220 9999 FEW064 OVC071 17/17 Q1006 BLU
8:25 am
V
63 °F 6¼ mi+ 6.600 ft 220° 220° 4 kt METAR EHDL 240625Z AUTO 22004KT 160V270 9999 BKN066 OVC072 17/17 Q1006 BLU
7:55 am
V
63 °F 6¼ mi+ 10.000 ft 260° 260° 3 kt METAR EHDL 240555Z AUTO 26003KT 190V330 9999 FEW015CB SCT054 OVC100 17/16 Q1006 BLU
7:25 am
V
63 °F 6¼ mi+ 3.400 ft Var Var 2 kt METAR EHDL 240525Z AUTO VRB02KT 9999 -RA OVC034 17/16 Q1006 BLU
6:55 am
V
63 °F 6¼ mi+ 5.200 ft Var Var 2 kt METAR EHDL 240455Z AUTO VRB02KT 9999 BKN052 OVC110 17/16 Q1006 BLU
6:25 am
V
63 °F 6¼ mi+ 11.000 ft 320° 320° 6 kt METAR EHDL 240425Z AUTO 32006KT 290V040 9999 OVC110 17/16 Q1006 BLU
5:55 am
V
63 °F 6¼ mi+ 10.000 ft 300° 300° 4 kt METAR EHDL 240355Z AUTO 30004KT 260V010 9999 OVC100 17/16 Q1006 BLU
5:25 am
V
63 °F 6¼ mi+ 9.600 ft 290° 290° 8 kt METAR EHDL 240325Z AUTO 29008KT 250V350 9999 -RA FEW015CB BKN096 OVC100 17/16 Q1006 RETSRA BLU
4:55 am
I
64 °F 4⅜ mi 700 ft 290° 290° 6 kt METAR EHDL 240255Z AUTO 29006KT 240V030 7000 TSRA SCT006 BKN007 BKN010 BKN015CB 18/18 Q1007 REDZ YLO
4:25 am
I
66 °F 6¼ mi+ 700 ft Var Var 7 kt METAR EHDL 240225Z AUTO VRB07KT 9999 -TSRA +DZ FEW004 SCT005 BKN007 FEW015CB 19/18 Q1006 YLO
3:55 am
V
66 °F 5⅝ mi 9.000 ft 250° 250° 6 kt METAR EHDL 240155Z AUTO 25006KT 210V300 9000 SHRA FEW007 FEW015CB SCT060 BKN090 19/18 Q1007 RETS BLU
3:25 am
M
66 °F 3⅛ mi 4.500 ft 170° 170° 13 - 23 kt METAR EHDL 240125Z AUTO 17013G23KT 5000 TSRA FEW008 FEW015CB SCT016 BKN045 19/18 Q1008 WHT
2:55 am
V
66 °F 6¼ mi+ 10.000 ft 020° 020° 7 kt METAR EHDL 240055Z AUTO 02007KT 350V060 9999 FEW070 OVC100 19/18 Q1005 RETS BLU
2:25 am
V
68 °F 6¼ mi+ 10.600 ft 010° 010° 7 kt METAR EHDL 240025Z AUTO 01007KT 330V070 9999 FEW013 FEW015CB SCT099 OVC106 20/18 Q1006 RETS BLU
1:55 am
M
68 °F 4⅜ mi 6.600 ft Var Var 4 kt METAR EHDL 232355Z AUTO VRB04KT 7000 +TSRA FEW015CB SCT058 BKN066 20/18 Q1007 WHT
1:25 am
V
66 °F 6¼ mi+ 6.700 ft Var Var 5 kt METAR EHDL 232325Z AUTO VRB05KT 9999 TS FEW015CB BKN067 BKN074 19/18 Q1007 BLU
12:55 am
V
68 °F 6¼ mi+ 6.900 ft 310° 310° 7 kt METAR EHDL 232255Z AUTO 31007KT 290V040 9999 TS FEW015CB OVC069 20/18 Q1007 BLU
12:25 am
V
66 °F 6¼ mi+ 7.200 ft 350° 350° 7 kt METAR EHDL 232225Z AUTO 35007KT 330V030 9999 FEW015CB BKN072 BKN130 19/17 Q1007 RETS BLU

23 czerwca 2022

Czas Kod Pogoda Temp. Widoczność Sufit Wiatr METAR/SPECI
11:55 pm
V
68 °F 6¼ mi+ 6.800 ft 320° 320° 7 kt METAR EHDL 232155Z AUTO 32007KT 280V060 9999 -DZ TS SCT015CB BKN068 OVC075 20/18 Q1008 RERA REDZ WHT
11:25 pm
V
68 °F 6¼ mi+ 6.900 ft Var Var 6 kt METAR EHDL 232125Z AUTO VRB06KT 9999 -TSRA SCT015CB BKN069 OVC074 20/17 Q1008 RERA WHT
10:55 pm
V
72 °F 6¼ mi+ 10.000 ft 240° 240° 6 kt METAR EHDL 232055Z AUTO 24006KT 180V300 9999 -TSRA FEW015CB OVC100 22/20 Q1009 BLU
10:25 pm
V
73 °F 6¼ mi+ 10.000 ft 190° 190° 7 kt METAR EHDL 232025Z AUTO 19007KT 130V230 9999 -RADZ SCT016CB OVC100 23/19 Q1009 RETS WHT
9:55 pm
V
73 °F 6¼ mi+ 11.000 ft Var Var 2 kt METAR EHDL 231955Z AUTO VRB02KT 9999 TS FEW017CB OVC110 23/19 Q1008 BLU
9:25 pm
V
75 °F 6¼ mi+ 7.700 ft 170° 170° 3 kt METAR EHDL 231925Z AUTO 17003KT 070V150 9999 BKN077 OVC084 24/21 Q1008 BLU
8:55 pm
V
77 °F 6¼ mi+ 10.000 ft 350° 350° 1 kt METAR EHDL 231855Z AUTO 35001KT 9999 OVC100 25/18 Q1008 BLU
8:25 pm
V
79 °F 6¼ mi+ 10.000 ft Var Var 1 kt METAR EHDL 231825Z AUTO VRB01KT 9999 OVC100 26/18 Q1008 BLU
7:55 pm
V
81 °F 6¼ mi+ 9.500 ft Var 000° 0 kt METAR EHDL 231755Z AUTO 00000KT 9999 OVC095 27/18 Q1008 BLU
7:25 pm
V
77 °F 6¼ mi+ 9.800 ft Var Var 1 kt METAR EHDL 231725Z AUTO VRB01KT 9999 BKN098 BKN100 25/18 Q1008 REDZ BLU
6:55 pm
V
75 °F 6¼ mi+ 9.100 ft Var Var 3 kt METAR EHDL 231655Z AUTO VRB03KT 9999 FEW028CB SCT073 BKN091 24/17 Q1009 RETSRA BLU
6:25 pm
V
75 °F 6¼ mi+ 6.100 ft 200° 200° 11 kt METAR EHDL 231625Z AUTO 20011KT 120V260 9999 TSRA FEW022CB OVC061 24/19 Q1009 BLU
5:55 pm
V
84 °F 6¼ mi+ 10.000 ft 150° 150° 6 kt METAR EHDL 231555Z AUTO 15006KT 080V220 9999 FEW087 OVC100 29/15 Q1008 BLU
5:25 pm
V
88 °F 6¼ mi+ 7.000 ft Var Var 6 kt METAR EHDL 231525Z AUTO VRB06KT 9999 SCT064 BKN070 BKN085 31/15 Q1008 BLU
4:55 pm
V
86 °F 6¼ mi+ 6.200 ft Var Var 9 kt METAR EHDL 231455Z AUTO VRB09KT 9999 BKN062 BKN072 30/15 Q1009 BLU
4:25 pm
V
88 °F 6¼ mi+ - 170° 170° 6 kt METAR EHDL 231425Z AUTO 17006KT 090V240 9999 FEW059 31/15 Q1009 BLU
3:55 pm
V
88 °F 6¼ mi+ 5.900 ft Var Var 10 kt METAR EHDL 231355Z AUTO VRB10KT 9999 BKN059 31/15 Q1009 BLU
3:25 pm
V
88 °F 6¼ mi+ - 150° 150° 8 kt METAR EHDL 231325Z AUTO 15008KT 060V230 9999 NCD 31/16 Q1010 BLU
2:55 pm
V
88 °F 6¼ mi+ - 160° 160° 11 kt METAR EHDL 231255Z AUTO 16011KT 070V230 9999 FEW057 31/16 Q1010 BLU
2:25 pm
V
88 °F 6¼ mi+ - 160° 160° 10 kt METAR EHDL 231225Z AUTO 16010KT 090V250 9999 FEW058 31/15 Q1010 BLU
1:55 pm
V
86 °F 6¼ mi+ - Var Var 10 kt METAR EHDL 231155Z AUTO VRB10KT 9999 SCT054 30/16 Q1010 BLU
1:25 pm
V
84 °F 6¼ mi+ - Var Var 9 kt METAR EHDL 231125Z AUTO VRB09KT 9999 FEW050 29/15 Q1010 BLU
12:55 pm
V
82 °F 6¼ mi+ - 150° 150° 11 kt METAR EHDL 231055Z AUTO 15011KT 080V250 9999 NCD 28/15 Q1011 BLU
12:25 pm
V
82 °F 6¼ mi+ - Var Var 8 kt METAR EHDL 231025Z AUTO VRB08KT 9999 NCD 28/15 Q1011 BLU
11:55 am
V
81 °F 6¼ mi+ - 130° 130° 6 kt METAR EHDL 230955Z AUTO 13006KT 090V220 9999 NCD 27/15 Q1011 BLU
11:25 am
V
79 °F 6¼ mi+ - Var Var 7 kt METAR EHDL 230925Z AUTO VRB07KT 9999 NCD 26/15 Q1011 BLU
10:55 am
V
77 °F 6¼ mi+ - 120° 120° 6 kt METAR EHDL 230855Z AUTO 12006KT 050V200 9999 NCD 25/15 Q1011 BLU
10:25 am
V
75 °F 6¼ mi+ - Var Var 6 kt METAR EHDL 230825Z AUTO VRB06KT 9999 NCD 24/14 Q1011 BLU
9:55 am
V
73 °F 6¼ mi+ - Var Var 7 kt METAR EHDL 230755Z AUTO VRB07KT 9999 NCD 23/13 Q1012 BLU
9:25 am
V
72 °F 6¼ mi+ - Var Var 5 kt METAR EHDL 230725Z AUTO VRB05KT 9999 NCD 22/12 Q1012 BLU
8:55 am
V
68 °F 6¼ mi+ - 090° 090° 6 kt METAR EHDL 230655Z AUTO 09006KT 360V170 9999 NCD 20/13 Q1012 BLU
8:25 am
V
66 °F 6¼ mi+ - 100° 100° 6 kt METAR EHDL 230625Z AUTO 10006KT 020V190 9999 NCD 19/12 Q1012 BLU
7:55 am
V
63 °F 6¼ mi+ - Var Var 5 kt METAR EHDL 230555Z AUTO VRB05KT 9999 NCD 17/12 Q1012 BLU
7:25 am
V
63 °F 6¼ mi+ - Var Var 6 kt METAR EHDL 230525Z AUTO VRB06KT 9999 NCD 17/12 Q1012 BLU
6:55 am
V
59 °F 6¼ mi+ 35.000 ft 070° 070° 6 kt METAR EHDL 230455Z AUTO 07006KT 360V140 9999 OVC350 15/12 Q1012 BLU
6:25 am
V
59 °F 6¼ mi+ - 080° 080° 6 kt METAR EHDL 230425Z AUTO 08006KT 340V150 9999 NCD 15/12 Q1012 BLU
5:55 am
V
57 °F 6¼ mi+ 35.000 ft 070° 070° 5 kt METAR EHDL 230355Z AUTO 07005KT 340V150 9999 OVC350 14/12 Q1012 BLU
5:25 am
V
57 °F 6¼ mi+ 35.000 ft Var Var 5 kt METAR EHDL 230325Z AUTO VRB05KT 9999 OVC350 14/12 Q1012 BLU
4:55 am
V
57 °F 6¼ mi+ 36.000 ft 070° 070° 8 kt METAR EHDL 230255Z AUTO 07008KT 360V110 9999 BKN360 14/12 Q1012 BLU
4:25 am
V
57 °F 6¼ mi+ 35.000 ft 070° 070° 7 kt METAR EHDL 230225Z AUTO 07007KT 350V150 9999 BKN350 14/12 Q1012 BLU
3:55 am
V
59 °F 6¼ mi+ - 080° 080° 6 kt METAR EHDL 230155Z AUTO 08006KT 340V140 9999 SCT360 15/13 Q1012 BLU
3:25 am
V
57 °F 6¼ mi+ - 060° 060° 7 kt METAR EHDL 230125Z AUTO 06007KT 350V110 9999 NCD 14/13 Q1012 BLU
2:55 am
V
59 °F 6¼ mi+ - 070° 070° 7 kt METAR EHDL 230055Z AUTO 07007KT 360V110 9999 FEW360 15/13 Q1012 BLU
2:25 am
V
59 °F 6¼ mi+ - 060° 060° 6 kt METAR EHDL 230025Z AUTO 06006KT 350V110 9999 NCD 15/13 Q1013 BLU RMK CB INFO NOT AVBL
1:55 am
V
61 °F 6¼ mi+ - 060° 060° 7 kt METAR EHDL 222355Z AUTO 06007KT 350V100 9999 NCD 16/13 Q1013 BLU
1:25 am
V
61 °F 6¼ mi+ - 060° 060° 6 kt METAR EHDL 222325Z AUTO 06006KT 330V110 9999 NCD 16/13 Q1013 BLU
12:55 am
V
61 °F 6¼ mi+ - 060° 060° 6 kt METAR EHDL 222255Z AUTO 06006KT 320V090 9999 NCD 16/13 Q1013 BLU
12:25 am
V
63 °F 6¼ mi+ - 060° 060° 8 kt METAR EHDL 222225Z AUTO 06008KT 330V100 9999 NCD 17/13 Q1013 BLU

22 czerwca 2022

Czas Kod Pogoda Temp. Widoczność Sufit Wiatr METAR/SPECI
11:55 pm
V
64 °F 6¼ mi+ - 040° 040° 8 kt METAR EHDL 222155Z AUTO 04008KT 320V100 9999 NCD 18/12 Q1013 BLU
11:25 pm
V
64 °F 6¼ mi+ - 040° 040° 8 kt METAR EHDL 222125Z AUTO 04008KT 330V110 9999 NCD 18/11 Q1013 BLU
10:55 pm
V
64 °F 6¼ mi+ - 030° 030° 7 kt METAR EHDL 222055Z AUTO 03007KT 330V080 9999 NCD 18/09 Q1012 BLU
10:25 pm
V
64 °F 6¼ mi+ - 030° 030° 6 kt METAR EHDL 222025Z AUTO 03006KT 350V060 9999 NCD 18/09 Q1012 BLU
9:55 pm
V
68 °F 6¼ mi+ - 020° 020° 6 kt METAR EHDL 221955Z AUTO 02006KT 350V060 9999 NCD 20/09 Q1012 BLU
9:25 pm
V
72 °F 6¼ mi+ - 030° 030° 7 kt METAR EHDL 221925Z AUTO 03007KT 340V080 9999 NCD 22/08 Q1012 BLU
8:55 pm
V
73 °F 6¼ mi+ - 030° 030° 8 kt METAR EHDL 221855Z AUTO 03008KT 300V090 9999 NCD 23/07 Q1012 BLU
8:25 pm
V
75 °F 6¼ mi+ - 030° 030° 8 kt METAR EHDL 221825Z AUTO 03008KT 320V110 9999 NCD 24/06 Q1012 BLU
7:25 pm
V
77 °F 6¼ mi+ - Var Var 7 kt METAR EHDL 221725Z AUTO VRB07KT 9999 NCD 25/08 Q1011 BLU
6:55 pm
V
79 °F 6¼ mi+ - Var Var 6 kt METAR EHDL 221655Z AUTO VRB06KT 9999 NCD 26/07 Q1011 BLU
6:25 pm
V
79 °F 6¼ mi+ - Var Var 4 kt METAR EHDL 221625Z AUTO VRB04KT 9999 NCD 26/07 Q1012 BLU
5:55 pm
V
79 °F 6¼ mi+ - 100° 100° 3 kt METAR EHDL 221555Z AUTO 10003KT 330V120 9999 NCD 26/09 Q1012 BLU
5:25 pm
V
79 °F 6¼ mi+ - Var Var 5 kt METAR EHDL 221525Z AUTO VRB05KT 9999 NCD 26/07 Q1012 BLU
4:55 pm
V
79 °F 6¼ mi+ - Var Var 4 kt METAR EHDL 221455Z AUTO VRB04KT 9999 NCD 26/07 Q1012 BLU
Starsze dane

Pobierz naszą aplikację

Łatwy dostęp do całej pogody lotniczej na telefonie komórkowym i tablecie.
Z wieloma funkcjami niedostępnymi na stronie internetowej, takimi jak wsparcie offline i osobista lista lotnisk.

My i osoby trzecie śledzimy twoje zachowanie w internecie na naszej stronie za pomocą plików cookie. Jeśli kontynuujesz, zakładamy, że zgadzasz się z naszą polityką plików cookie. Dowiedz się więcej